Time;durP1;ratioP1;P1;durP2;ratioP2;P2;SDS_P1;SDS_P2;PMS_P1;PMS_P2;Temp;Humidity;BMP_temperature;BMP_pressure;BME280_temperature;BME280_humidity;BME280_pressure;Samples;Min_cycle;Max_cycle;Signal;HPM_P1;HPM_P2
2023/01/24 00:00:38;;;;;;;16.83;8.55;;;;;;;;;;10512364;28;20032;-75
2023/01/24 00:05:39;;;;;;;15.23;9.50;;;;;;;;;;10507527;28;20044;-75
2023/01/24 00:10:40;;;;;;;17.15;9.25;;;;;;;;;;10510440;28;20042;-78
2023/01/24 00:15:40;;;;;;;16.33;8.65;;;;;;;;;;10487520;28;20036;-77
2023/01/24 00:20:41;;;;;;;14.83;8.00;;;;;;;;;;10516586;28;20062;-78
2023/01/24 00:25:41;;;;;;;19.30;9.35;;;;;;;;;;10513409;28;20325;-76
2023/01/24 00:30:42;;;;;;;14.00;8.20;;;;;;;;;;10486360;28;20526;-77
2023/01/24 00:35:43;;;;;;;13.77;7.93;;;;;;;;;;10494375;28;20036;-79
2023/01/24 00:40:44;;;;;;;13.68;8.25;;;;;;;;;;10503168;28;20041;-78
2023/01/24 00:45:46;;;;;;;16.85;9.10;;;;;;;;;;10511092;28;20618;-78
2023/01/24 00:50:46;;;;;;;15.15;7.75;;;;;;;;;;10499432;28;20060;-77
2023/01/24 00:55:47;;;;;;;15.27;8.68;;;;;;;;;;10520878;28;20036;-79
2023/01/24 01:00:47;;;;;;;14.93;8.30;;;;;;;;;;10554366;28;20024;-77
2023/01/24 01:05:56;;;;;;;14.75;8.35;;;;;;;;;;10544636;28;20032;-84
2023/01/24 01:10:56;;;;;;;13.85;8.23;;;;;;;;;;10563783;28;20040;-79
2023/01/24 01:16:03;;;;;;;12.27;7.18;;;;;;;;;;10530215;28;20044;-79
2023/01/24 01:21:05;;;;;;;13.82;7.80;;;;;;;;;;10528734;28;20456;-79
2023/01/24 01:26:06;;;;;;;14.23;8.15;;;;;;;;;;10500098;28;20126;-78
2023/01/24 01:31:09;;;;;;;14.48;7.95;;;;;;;;;;10495668;28;20036;-77
2023/01/24 01:36:10;;;;;;;9.60;6.47;;;;;;;;;;10508131;28;20040;-77
2023/01/24 01:41:14;;;;;;;12.30;7.78;;;;;;;;;;10495786;28;20036;-78
2023/01/24 01:46:23;;;;;;;11.88;7.45;;;;;;;;;;10513773;28;20086;-76
2023/01/24 01:51:27;;;;;;;14.15;7.80;;;;;;;;;;10480529;28;20028;-79
2023/01/24 01:56:39;;;;;;;14.20;7.32;;;;;;;;;;10501660;28;20047;-77
2023/01/24 02:01:40;;;;;;;12.32;7.72;;;;;;;;;;10510251;28;20111;-78
2023/01/24 02:12:21;;;;;;;14.50;8.00;;;;;;;;;;2500665;23;20058;-84
2023/01/24 02:17:22;;;;;;;14.43;7.65;;;;;;;;;;10368384;28;20037;-81
2023/01/24 02:22:26;;;;;;;13.00;7.60;;;;;;;;;;10343528;28;20537;-77
2023/01/24 02:27:27;;;;;;;14.20;7.55;;;;;;;;;;10360112;28;20484;-81
2023/01/24 02:32:28;;;;;;;13.55;7.70;;;;;;;;;;10407729;28;20046;-78
2023/01/24 02:37:29;;;;;;;13.68;7.78;;;;;;;;;;10407522;28;20120;-77
2023/01/24 02:42:32;;;;;;;15.75;8.68;;;;;;;;;;10364785;28;20049;-79
2023/01/24 02:47:38;;;;;;;13.45;8.32;;;;;;;;;;10365622;28;20152;-77
2023/01/24 02:58:06;;;;;;;13.93;8.15;;;;;;;;;;10368169;28;20087;-77
2023/01/24 03:03:08;;;;;;;11.75;7.05;;;;;;;;;;10356595;28;20050;-77
2023/01/24 03:08:09;;;;;;;14.82;8.10;;;;;;;;;;10353703;28;20038;-80
2023/01/24 03:34:32;;;;;;;11.18;6.75;;;;;;;;;;10299223;28;20083;-79
2023/01/24 03:44:55;;;;;;;11.30;7.07;;;;;;;;;;10302105;28;20050;-78
2023/01/24 03:55:14;;;;;;;13.98;6.75;;;;;;;;;;10305595;28;20039;-81
2023/01/24 04:00:19;;;;;;;13.13;7.13;;;;;;;;;;10319160;28;20036;-78
2023/01/24 04:05:26;;;;;;;13.93;7.80;;;;;;;;;;10336912;28;20038;-77
2023/01/24 04:10:28;;;;;;;10.35;6.80;;;;;;;;;;10433515;23;20529;-76
2023/01/24 04:15:30;;;;;;;12.05;6.90;;;;;;;;;;10441088;28;20043;-78
2023/01/24 04:20:51;;;;;;;12.55;7.13;;;;;;;;;;10441715;28;20041;-77
2023/01/24 04:25:56;;;;;;;10.65;6.35;;;;;;;;;;10439538;28;20124;-77
2023/01/24 04:30:58;;;;;;;9.27;5.72;;;;;;;;;;10423630;28;20090;-77
2023/01/24 04:36:16;;;;;;;10.68;6.60;;;;;;;;;;10482958;28;20123;-77
2023/01/24 04:41:17;;;;;;;8.95;5.53;;;;;;;;;;10505990;28;20046;-77
2023/01/24 04:46:18;;;;;;;8.68;5.75;;;;;;;;;;10489080;28;20846;-77
2023/01/24 04:51:28;;;;;;;9.18;6.00;;;;;;;;;;10461121;28;20038;-80
2023/01/24 04:56:29;;;;;;;9.40;5.53;;;;;;;;;;10482842;28;20732;-77
2023/01/24 05:01:32;;;;;;;7.80;5.18;;;;;;;;;;10463819;28;20055;-78
2023/01/24 05:06:39;;;;;;;9.23;6.10;;;;;;;;;;10482071;28;20058;-79
2023/01/24 05:11:41;;;;;;;10.15;5.53;;;;;;;;;;10419561;28;20033;-78
2023/01/24 05:16:43;;;;;;;9.95;5.85;;;;;;;;;;10424346;28;20037;-79
2023/01/24 05:21:45;;;;;;;7.68;5.00;;;;;;;;;;10448570;28;20029;-78
2023/01/24 05:26:48;;;;;;;7.40;5.03;;;;;;;;;;10471799;28;20041;-79
2023/01/24 05:31:54;;;;;;;7.70;4.85;;;;;;;;;;10439897;28;20124;-76
2023/01/24 05:36:56;;;;;;;7.65;4.93;;;;;;;;;;10439232;28;20524;-78
2023/01/24 05:41:57;;;;;;;6.82;4.90;;;;;;;;;;10414840;28;20041;-81
2023/01/24 05:47:02;;;;;;;6.13;4.55;;;;;;;;;;10421385;28;20062;-78
2023/01/24 05:52:08;;;;;;;8.48;4.78;;;;;;;;;;10399914;28;20054;-80
2023/01/24 05:57:20;;;;;;;8.05;4.78;;;;;;;;;;10422728;28;20458;-77
2023/01/24 06:02:40;;;;;;;7.63;4.80;;;;;;;;;;10430403;28;20559;-76
2023/01/24 06:07:41;;;;;;;8.73;4.78;;;;;;;;;;10436487;28;20049;-76
2023/01/24 06:12:41;;;;;;;7.53;4.55;;;;;;;;;;10443597;28;20115;-79
2023/01/24 06:17:42;;;;;;;7.38;4.40;;;;;;;;;;10413705;28;20476;-77
2023/01/24 06:22:50;;;;;;;7.78;4.85;;;;;;;;;;10423074;28;20680;-78
2023/01/24 06:27:52;;;;;;;8.88;4.70;;;;;;;;;;10398750;28;20084;-80
2023/01/24 06:33:09;;;;;;;7.07;4.15;;;;;;;;;;10429747;28;20576;-78
2023/01/24 06:38:19;;;;;;;6.20;4.40;;;;;;;;;;10416072;28;20037;-78
2023/01/24 06:43:19;;;;;;;6.03;4.38;;;;;;;;;;10425231;28;20136;-77
2023/01/24 06:48:21;;;;;;;7.95;4.97;;;;;;;;;;10419869;28;20053;-78
2023/01/24 06:53:21;;;;;;;7.13;4.50;;;;;;;;;;10411770;28;20204;-79
2023/01/24 06:58:22;;;;;;;6.47;3.80;;;;;;;;;;10436846;28;20036;-82
2023/01/24 07:03:22;;;;;;;6.03;4.10;;;;;;;;;;10479204;28;20065;-76
2023/01/24 07:08:22;;;;;;;7.72;4.47;;;;;;;;;;10456407;28;20067;-76
2023/01/24 07:13:23;;;;;;;6.50;4.18;;;;;;;;;;10450717;28;20034;-77
2023/01/24 07:18:23;;;;;;;7.38;4.05;;;;;;;;;;10447974;28;20484;-80
2023/01/24 07:23:28;;;;;;;7.90;4.32;;;;;;;;;;10428063;28;20044;-80
2023/01/24 07:28:28;;;;;;;7.00;4.60;;;;;;;;;;10467382;28;20021;-78
2023/01/24 07:33:29;;;;;;;6.28;4.18;;;;;;;;;;10513483;28;20096;-80
2023/01/24 07:38:29;;;;;;;6.47;4.20;;;;;;;;;;10506348;28;20066;-79
2023/01/24 07:43:30;;;;;;;6.15;4.45;;;;;;;;;;10529747;28;20032;-80
2023/01/24 07:48:31;;;;;;;7.35;4.85;;;;;;;;;;10471110;28;20036;-77
2023/01/24 07:53:31;;;;;;;6.88;4.32;;;;;;;;;;10466663;28;20033;-78
2023/01/24 07:58:32;;;;;;;8.25;5.63;;;;;;;;;;10450703;28;20032;-78
2023/01/24 08:03:33;;;;;;;6.80;4.80;;;;;;;;;;10470623;28;20083;-77
2023/01/24 08:08:34;;;;;;;6.97;5.10;;;;;;;;;;10472182;28;20119;-78
2023/01/24 08:13:34;;;;;;;7.50;4.93;;;;;;;;;;10465267;28;20029;-78
2023/01/24 08:18:36;;;;;;;8.07;5.13;;;;;;;;;;10478637;28;20350;-78
2023/01/24 08:23:38;;;;;;;7.13;5.07;;;;;;;;;;10471516;28;20106;-80
2023/01/24 08:28:38;;;;;;;8.40;4.60;;;;;;;;;;10466570;28;20024;-82
2023/01/24 08:33:39;;;;;;;7.87;5.00;;;;;;;;;;10489697;28;20467;-80
2023/01/24 08:38:43;;;;;;;7.45;4.53;;;;;;;;;;10481420;28;20322;-79
2023/01/24 08:43:45;;;;;;;8.02;5.78;;;;;;;;;;10462576;28;20040;-79
2023/01/24 08:48:45;;;;;;;8.55;5.22;;;;;;;;;;10472640;28;20047;-77
2023/01/24 08:53:47;;;;;;;7.03;4.72;;;;;;;;;;10453139;28;20550;-79
2023/01/24 08:58:49;;;;;;;8.13;5.22;;;;;;;;;;10475483;28;20072;-79
2023/01/24 09:03:50;;;;;;;7.53;5.10;;;;;;;;;;10484106;28;20131;-79
2023/01/24 09:08:53;;;;;;;8.27;5.70;;;;;;;;;;10465784;28;20045;-79
2023/01/24 09:13:53;;;;;;;7.90;4.90;;;;;;;;;;10448492;28;20028;-81
2023/01/24 09:18:59;;;;;;;7.57;4.65;;;;;;;;;;10475604;28;20119;-79
2023/01/24 09:24:01;;;;;;;8.50;5.22;;;;;;;;;;10478959;28;20040;-79
2023/01/24 09:29:03;;;;;;;8.30;5.20;;;;;;;;;;10484996;28;20144;-77
2023/01/24 09:34:03;;;;;;;7.80;4.93;;;;;;;;;;10470209;28;20169;-79
2023/01/24 09:39:04;;;;;;;7.95;5.30;;;;;;;;;;10484560;28;20048;-77
2023/01/24 09:44:12;;;;;;;6.22;4.30;;;;;;;;;;10505186;28;20060;-77
2023/01/24 09:49:20;;;;;;;7.88;5.22;;;;;;;;;;10510772;28;20041;-79
2023/01/24 09:54:39;;;;;;;7.20;4.80;;;;;;;;;;10500763;28;20079;-79
2023/01/24 09:59:43;;;;;;;6.68;4.72;;;;;;;;;;10520662;28;20036;-78
2023/01/24 10:04:44;;;;;;;8.25;5.15;;;;;;;;;;10493048;28;20047;-77
2023/01/24 10:10:01;;;;;;;6.95;5.07;;;;;;;;;;10495913;28;20051;-79
2023/01/24 10:15:30;;;;;;;7.50;5.05;;;;;;;;;;10479030;28;20036;-79
2023/01/24 10:20:40;;;;;;;9.73;5.55;;;;;;;;;;10498795;28;20072;-77
2023/01/24 10:25:53;;;;;;;9.40;5.38;;;;;;;;;;10483329;28;20052;-81
2023/01/24 10:31:04;;;;;;;7.25;5.30;;;;;;;;;;10480692;28;20041;-79
2023/01/24 10:36:10;;;;;;;8.00;5.53;;;;;;;;;;10458304;28;20052;-79
2023/01/24 10:41:17;;;;;;;8.13;6.05;;;;;;;;;;10471850;28;20094;-80
2023/01/24 10:46:24;;;;;;;6.97;5.00;;;;;;;;;;10458146;28;20037;-81
2023/01/24 10:51:48;;;;;;;7.63;5.10;;;;;;;;;;10463811;28;20060;-79
2023/01/24 10:56:54;;;;;;;7.18;5.03;;;;;;;;;;10452300;28;20097;-80
2023/01/24 11:01:59;;;;;;;8.98;5.80;;;;;;;;;;10464354;28;20532;-78
2023/01/24 11:07:01;;;;;;;7.47;5.50;;;;;;;;;;10473489;28;20056;-80
2023/01/24 11:12:01;;;;;;;8.07;5.35;;;;;;;;;;10461104;28;20163;-79
2023/01/24 11:17:02;;;;;;;8.73;6.00;;;;;;;;;;10474002;28;20468;-81
2023/01/24 11:22:34;;;;;;;7.82;5.65;;;;;;;;;;10450334;28;20046;-82
2023/01/24 11:27:47;;;;;;;8.95;5.90;;;;;;;;;;10476971;28;20063;-83
2023/01/24 11:33:07;;;;;;;8.75;6.13;;;;;;;;;;10491523;28;20446;-80
2023/01/24 11:38:21;;;;;;;7.78;5.97;;;;;;;;;;10462867;28;20439;-79
2023/01/24 11:43:41;;;;;;;7.95;5.43;;;;;;;;;;10483890;28;20055;-80
2023/01/24 11:49:01;;;;;;;8.68;5.45;;;;;;;;;;10469584;28;20048;-80
2023/01/24 11:54:20;;;;;;;12.30;5.88;;;;;;;;;;10466862;28;20047;-80
2023/01/24 11:59:29;;;;;;;10.07;6.03;;;;;;;;;;10458890;28;20033;-78
2023/01/24 12:04:50;;;;;;;9.68;6.53;;;;;;;;;;10454791;28;20052;-79
2023/01/24 12:10:15;;;;;;;8.43;6.32;;;;;;;;;;10480386;28;20178;-79
2023/01/24 12:15:30;;;;;;;8.97;6.03;;;;;;;;;;10460029;28;20040;-80
2023/01/24 12:20:40;;;;;;;10.18;6.45;;;;;;;;;;10465319;28;20045;-78
2023/01/24 12:25:43;;;;;;;9.30;5.63;;;;;;;;;;10437022;28;20049;-79
2023/01/24 12:30:48;;;;;;;8.13;5.95;;;;;;;;;;10467453;28;20110;-80
2023/01/24 12:35:52;;;;;;;8.93;6.15;;;;;;;;;;10461402;28;20041;-79
2023/01/24 12:41:02;;;;;;;9.10;5.97;;;;;;;;;;10472569;28;20040;-80
2023/01/24 12:46:06;;;;;;;9.85;6.13;;;;;;;;;;10467683;28;20036;-80
2023/01/24 12:51:10;;;;;;;;;;;;;;;;;;10467421;28;20041;-78
2023/01/24 12:56:13;;;;;;;9.40;5.75;;;;;;;;;;10482521;28;20097;-81
2023/01/24 13:01:33;;;;;;;9.35;5.68;;;;;;;;;;10508130;28;20039;-79
2023/01/24 13:06:33;;;;;;;10.27;6.50;;;;;;;;;;10481278;28;20051;-82
2023/01/24 13:11:41;;;;;;;8.33;5.57;;;;;;;;;;10483714;28;20684;-79
2023/01/24 13:16:53;;;;;;;8.48;6.22;;;;;;;;;;10483927;28;20024;-79
2023/01/24 13:22:09;;;;;;;10.68;6.15;;;;;;;;;;10462800;28;20108;-79
2023/01/24 13:27:14;;;;;;;10.25;6.28;;;;;;;;;;10499509;28;20048;-81
2023/01/24 13:32:16;;;;;;;9.82;6.68;;;;;;;;;;10515343;28;20089;-80
2023/01/24 13:37:28;;;;;;;10.23;6.95;;;;;;;;;;10477393;28;20033;-80
2023/01/24 13:42:37;;;;;;;13.48;7.65;;;;;;;;;;10470611;28;20670;-81
2023/01/24 13:47:37;;;;;;;8.30;5.70;;;;;;;;;;10456775;28;20040;-81
2023/01/24 13:52:39;;;;;;;7.72;5.70;;;;;;;;;;10462445;28;20109;-78
2023/01/24 13:57:42;;;;;;;10.45;6.82;;;;;;;;;;10471045;28;20086;-79
2023/01/24 14:02:47;;;;;;;8.35;5.75;;;;;;;;;;10456499;28;20060;-77
2023/01/24 14:07:50;;;;;;;9.60;5.90;;;;;;;;;;10467556;28;20132;-80
2023/01/24 14:12:53;;;;;;;9.80;6.80;;;;;;;;;;10451970;28;20106;-79
2023/01/24 14:17:53;;;;;;;8.38;5.93;;;;;;;;;;10442189;28;20052;-84
2023/01/24 14:22:57;;;;;;;10.57;6.65;;;;;;;;;;10439449;28;20551;-80
2023/01/24 14:28:04;;;;;;;9.57;5.90;;;;;;;;;;10470697;28;20405;-83
2023/01/24 14:33:28;;;;;;;10.68;7.05;;;;;;;;;;10465974;28;20123;-82
2023/01/24 14:38:30;;;;;;;8.70;6.45;;;;;;;;;;10484382;28;20040;-80
2023/01/24 14:43:36;;;;;;;9.63;6.40;;;;;;;;;;10483449;28;20115;-80
2023/01/24 14:48:36;;;;;;;10.98;7.18;;;;;;;;;;10478109;28;20033;-79
2023/01/24 14:53:37;;;;;;;7.78;5.72;;;;;;;;;;10438752;28;20412;-83
2023/01/24 14:58:38;;;;;;;8.40;5.90;;;;;;;;;;10473375;28;20033;-81
2023/01/24 15:03:45;;;;;;;9.15;6.07;;;;;;;;;;10474766;28;20043;-86
2023/01/24 15:08:47;;;;;;;12.13;7.38;;;;;;;;;;10492594;28;20028;-86
2023/01/24 15:13:52;;;;;;;8.95;6.43;;;;;;;;;;10486829;28;20036;-79
2023/01/24 15:18:54;;;;;;;9.32;6.45;;;;;;;;;;10501823;28;20124;-82
2023/01/24 15:23:57;;;;;;;10.75;7.13;;;;;;;;;;10475571;28;20047;-83
2023/01/24 15:28:59;;;;;;;13.18;8.18;;;;;;;;;;10476770;28;20040;-83
2023/01/24 15:34:00;;;;;;;9.77;6.38;;;;;;;;;;10459226;28;20074;-81
2023/01/24 15:39:01;;;;;;;10.02;7.47;;;;;;;;;;10480549;28;20032;-80
2023/01/24 15:44:06;;;;;;;9.55;7.10;;;;;;;;;;10455803;28;20057;-81
2023/01/24 15:49:24;;;;;;;11.40;6.97;;;;;;;;;;10512100;28;20084;-82
2023/01/24 15:54:27;;;;;;;10.00;6.97;;;;;;;;;;10510123;28;20087;-79
2023/01/24 15:59:29;;;;;;;11.95;7.70;;;;;;;;;;10477623;28;20020;-84
2023/01/24 16:04:29;;;;;;;9.88;7.50;;;;;;;;;;10478812;28;20087;-81
2023/01/24 16:09:29;;;;;;;11.68;8.18;;;;;;;;;;10485025;28;20020;-82
2023/01/24 16:14:32;;;;;;;13.73;7.93;;;;;;;;;;10478400;28;20065;-85
2023/01/24 16:19:32;;;;;;;15.35;8.90;;;;;;;;;;10482379;28;20124;-77
2023/01/24 16:24:42;;;;;;;12.77;7.20;;;;;;;;;;10509764;28;20083;-81
2023/01/24 16:29:51;;;;;;;10.80;7.38;;;;;;;;;;10463694;28;20057;-81
2023/01/24 16:34:56;;;;;;;11.15;7.55;;;;;;;;;;10550464;28;20099;-77
2023/01/24 16:39:56;;;;;;;12.90;7.68;;;;;;;;;;10510273;28;20023;-80
2023/01/24 16:44:58;;;;;;;13.27;7.82;;;;;;;;;;10504857;28;20515;-79
2023/01/24 16:49:59;;;;;;;12.05;7.70;;;;;;;;;;10463164;28;20042;-76
2023/01/24 16:55:01;;;;;;;12.63;8.18;;;;;;;;;;10480089;28;20124;-80
2023/01/24 17:00:03;;;;;;;16.80;9.07;;;;;;;;;;10477543;28;20137;-77
2023/01/24 17:05:13;;;;;;;16.15;9.30;;;;;;;;;;10475352;28;20053;-82
2023/01/24 17:10:23;;;;;;;15.30;8.80;;;;;;;;;;10734381;22;20053;-80
2023/01/24 17:15:28;;;;;;;14.63;8.20;;;;;;;;;;10526759;28;20073;-78
2023/01/24 17:20:30;;;;;;;12.98;8.15;;;;;;;;;;10502783;28;20041;-79
2023/01/24 17:25:31;;;;;;;13.50;8.50;;;;;;;;;;10506329;28;20082;-76
2023/01/24 17:30:32;;;;;;;12.98;8.07;;;;;;;;;;10527276;28;20665;-76
2023/01/24 17:35:37;;;;;;;15.63;9.53;;;;;;;;;;10498257;28;20381;-78
2023/01/24 17:40:37;;;;;;;17.05;9.88;;;;;;;;;;10519919;28;20286;-80
2023/01/24 17:45:38;;;;;;;14.07;9.07;;;;;;;;;;10508192;28;20054;-76
2023/01/24 17:50:38;;;;;;;16.07;9.03;;;;;;;;;;10515780;28;20484;-76
2023/01/24 17:55:38;;;;;;;14.47;9.17;;;;;;;;;;10522009;28;20688;-77
2023/01/24 18:00:39;;;;;;;14.40;8.98;;;;;;;;;;10509438;28;20745;-79
2023/01/24 18:05:39;;;;;;;15.13;9.20;;;;;;;;;;10510607;28;20550;-80
2023/01/24 18:10:40;;;;;;;15.10;8.20;;;;;;;;;;10539678;28;20036;-74
2023/01/24 18:15:41;;;;;;;15.80;8.93;;;;;;;;;;10554121;28;20028;-78
2023/01/24 18:20:42;;;;;;;15.05;9.10;;;;;;;;;;10585251;28;20053;-84
2023/01/24 18:25:42;;;;;;;15.43;9.40;;;;;;;;;;10553618;28;20054;-81
2023/01/24 18:30:42;;;;;;;16.70;10.30;;;;;;;;;;10547264;28;20487;-80
2023/01/24 18:35:43;;;;;;;16.52;9.50;;;;;;;;;;10553471;28;20810;-74
2023/01/24 18:40:43;;;;;;;15.30;9.35;;;;;;;;;;10526842;28;20101;-80
2023/01/24 18:45:44;;;;;;;15.85;10.38;;;;;;;;;;10523614;28;20055;-77
2023/01/24 18:50:46;;;;;;;17.20;9.63;;;;;;;;;;10533088;28;20043;-79
2023/01/24 18:55:47;;;;;;;17.87;10.37;;;;;;;;;;10560054;28;20725;-84
2023/01/24 19:00:47;;;;;;;16.83;9.63;;;;;;;;;;10578729;28;20079;-86
2023/01/24 19:05:48;;;;;;;19.40;10.43;;;;;;;;;;10600578;28;20040;-89
2023/01/24 19:10:49;;;;;;;20.98;11.05;;;;;;;;;;10589261;28;20270;-82
2023/01/24 19:15:50;;;;;;;20.60;11.40;;;;;;;;;;10541379;28;20072;-86
2023/01/24 19:20:50;;;;;;;17.90;10.70;;;;;;;;;;10547047;28;20059;-80
2023/01/24 19:25:51;;;;;;;17.05;9.25;;;;;;;;;;10553771;28;20048;-82
2023/01/24 19:30:52;;;;;;;15.63;9.63;;;;;;;;;;10551204;28;20067;-82
2023/01/24 19:35:53;;;;;;;20.67;11.05;;;;;;;;;;10552476;28;20118;-80
2023/01/24 19:41:01;;;;;;;19.73;10.30;;;;;;;;;;10565499;28;20032;-77
2023/01/24 19:46:03;;;;;;;19.23;11.05;;;;;;;;;;10560604;28;20395;-77
2023/01/24 19:51:04;;;;;;;18.00;10.18;;;;;;;;;;10555153;28;20473;-79
2023/01/24 19:56:06;;;;;;;19.88;10.98;;;;;;;;;;10556861;28;20643;-77
2023/01/24 20:01:12;;;;;;;22.02;10.98;;;;;;;;;;10562146;28;20123;-80
2023/01/24 20:06:14;;;;;;;17.23;10.32;;;;;;;;;;10557237;28;20067;-79
2023/01/24 20:11:15;;;;;;;20.17;11.17;;;;;;;;;;10559597;27;20048;-79
2023/01/24 20:16:20;;;;;;;17.70;10.85;;;;;;;;;;10549785;28;20093;-76
2023/01/24 20:21:21;;;;;;;20.92;11.93;;;;;;;;;;10555309;28;20032;-78
2023/01/24 20:26:21;;;;;;;21.63;12.60;;;;;;;;;;10557426;28;20048;-76
2023/01/24 20:31:26;;;;;;;22.50;12.57;;;;;;;;;;10563580;28;20043;-81
2023/01/24 20:36:27;;;;;;;18.42;9.73;;;;;;;;;;10567541;28;20060;-77
2023/01/24 20:41:30;;;;;;;18.42;10.27;;;;;;;;;;10567909;27;20484;-75
2023/01/24 20:46:32;;;;;;;18.52;9.52;;;;;;;;;;10572274;28;20068;-75
2023/01/24 20:51:33;;;;;;;18.02;9.73;;;;;;;;;;10545258;28;20097;-77
2023/01/24 20:56:33;;;;;;;18.10;9.77;;;;;;;;;;10524041;28;20602;-77
2023/01/24 21:01:33;;;;;;;15.18;9.07;;;;;;;;;;10528259;28;20032;-78
2023/01/24 21:06:35;;;;;;;15.77;9.60;;;;;;;;;;10554563;28;20122;-77
2023/01/24 21:11:35;;;;;;;15.75;9.52;;;;;;;;;;10555615;28;20281;-80
2023/01/24 21:16:36;;;;;;;15.13;8.25;;;;;;;;;;10558279;28;20750;-78
2023/01/24 21:21:37;;;;;;;18.15;9.50;;;;;;;;;;10551643;28;20051;-79
2023/01/24 21:26:38;;;;;;;18.67;9.93;;;;;;;;;;10548867;28;20833;-78
2023/01/24 21:31:38;;;;;;;17.90;9.68;;;;;;;;;;10553979;28;20109;-79
2023/01/24 21:36:39;;;;;;;15.98;9.75;;;;;;;;;;10557740;28;20040;-82
2023/01/24 21:41:55;;;;;;;17.73;9.52;;;;;;;;;;10531704;28;20039;-77
2023/01/24 21:46:55;;;;;;;17.88;9.88;;;;;;;;;;10546492;28;20040;-75
2023/01/24 21:51:57;;;;;;;16.98;9.55;;;;;;;;;;10499589;28;20048;-76
2023/01/24 22:02:19;;;;;;;16.17;9.82;;;;;;;;;;10517059;28;20031;-75
2023/01/24 22:07:21;;;;;;;20.65;10.90;;;;;;;;;;10542080;28;20377;-74
2023/01/24 22:12:22;;;;;;;18.13;9.75;;;;;;;;;;10535030;28;20043;-76
2023/01/24 22:17:22;;;;;;;18.80;10.82;;;;;;;;;;10502375;28;20063;-78
2023/01/24 22:22:42;;;;;;;18.83;10.80;;;;;;;;;;10524462;28;20043;-81
2023/01/24 22:27:43;;;;;;;21.80;10.90;;;;;;;;;;10489759;28;20040;-80
2023/01/24 22:32:44;;;;;;;18.75;10.75;;;;;;;;;;10517268;28;20404;-79
2023/01/24 22:37:46;;;;;;;17.85;9.75;;;;;;;;;;10511528;28;20044;-79
2023/01/24 22:42:47;;;;;;;18.75;10.57;;;;;;;;;;10491994;28;20080;-74
2023/01/24 22:47:47;;;;;;;17.60;9.73;;;;;;;;;;10529075;28;20506;-75
2023/01/24 22:52:47;;;;;;;20.42;10.40;;;;;;;;;;10578760;28;20023;-76
2023/01/24 22:57:48;;;;;;;16.80;9.73;;;;;;;;;;10551590;28;20032;-74
2023/01/24 23:02:48;;;;;;;20.05;10.55;;;;;;;;;;10588600;28;20471;-73
2023/01/24 23:07:49;;;;;;;18.17;10.55;;;;;;;;;;10553528;28;20039;-74
2023/01/24 23:18:12;;;;;;;19.25;10.38;;;;;;;;;;10567371;28;20053;-77
2023/01/24 23:23:12;;;;;;;21.52;12.13;;;;;;;;;;10555870;28;20035;-75
2023/01/24 23:28:13;;;;;;;21.33;11.65;;;;;;;;;;10538406;28;20788;-79
2023/01/24 23:33:25;;;;;;;21.73;12.50;;;;;;;;;;10539929;28;20036;-77
2023/01/24 23:38:26;;;;;;;23.98;12.20;;;;;;;;;;10566008;28;20837;-75
2023/01/24 23:43:26;;;;;;;21.08;11.63;;;;;;;;;;10550633;28;20089;-76
2023/01/24 23:48:27;;;;;;;22.45;12.85;;;;;;;;;;10538928;28;20397;-74
2023/01/24 23:53:27;;;;;;;22.52;11.00;;;;;;;;;;10543340;28;20073;-76
2023/01/24 23:58:28;;;;;;;23.08;11.85;;;;;;;;;;10545466;28;20898;-77
